sensor_id;sensor_type;location;lat;lon;timestamp;temperature;humidity
70154;DHT22;57519;51.494;-2.626;2023-07-13T00:02:15;15.77;84.51
70154;DHT22;57519;51.494;-2.626;2023-07-13T00:04:40;15.78;84.62
70154;DHT22;57519;51.494;-2.626;2023-07-13T00:07:07;15.80;84.55
70154;DHT22;57519;51.494;-2.626;2023-07-13T00:09:33;15.81;84.47
70154;DHT22;57519;51.494;-2.626;2023-07-13T00:11:58;15.81;84.39
70154;DHT22;57519;51.494;-2.626;2023-07-13T00:14:26;15.84;84.55
70154;DHT22;57519;51.494;-2.626;2023-07-13T00:16:52;15.85;84.50
70154;DHT22;57519;51.494;-2.626;2023-07-13T00:19:18;15.80;84.62
70154;DHT22;57519;51.494;-2.626;2023-07-13T00:21:44;15.80;84.71
70154;DHT22;57519;51.494;-2.626;2023-07-13T00:24:12;15.78;84.81
70154;DHT22;57519;51.494;-2.626;2023-07-13T00:26:38;15.73;84.69
70154;DHT22;57519;51.494;-2.626;2023-07-13T00:29:04;15.74;84.79
70154;DHT22;57519;51.494;-2.626;2023-07-13T00:31:34;15.77;84.72
70154;DHT22;57519;51.494;-2.626;2023-07-13T00:33:59;15.77;84.75
70154;DHT22;57519;51.494;-2.626;2023-07-13T00:36:25;15.75;84.80
70154;DHT22;57519;51.494;-2.626;2023-07-13T00:38:51;15.74;84.98
70154;DHT22;57519;51.494;-2.626;2023-07-13T00:41:17;15.73;85.22
70154;DHT22;57519;51.494;-2.626;2023-07-13T00:43:42;15.77;85.18
70154;DHT22;57519;51.494;-2.626;2023-07-13T00:46:25;15.83;85.08
70154;DHT22;57519;51.494;-2.626;2023-07-13T00:48:51;15.85;85.06
70154;DHT22;57519;51.494;-2.626;2023-07-13T00:51:21;15.90;85.04
70154;DHT22;57519;51.494;-2.626;2023-07-13T00:53:50;15.91;85.07
70154;DHT22;57519;51.494;-2.626;2023-07-13T00:56:16;15.93;85.18
70154;DHT22;57519;51.494;-2.626;2023-07-13T00:58:41;15.88;85.31
70154;DHT22;57519;51.494;-2.626;2023-07-13T01:01:07;15.83;85.23
70154;DHT22;57519;51.494;-2.626;2023-07-13T01:03:34;15.81;85.08
70154;DHT22;57519;51.494;-2.626;2023-07-13T01:06:00;15.80;85.14
70154;DHT22;57519;51.494;-2.626;2023-07-13T01:08:26;15.75;85.29
70154;DHT22;57519;51.494;-2.626;2023-07-13T01:10:55;15.70;85.37
70154;DHT22;57519;51.494;-2.626;2023-07-13T01:13:22;15.60;85.76
70154;DHT22;57519;51.494;-2.626;2023-07-13T01:15:49;15.56;85.92
70154;DHT22;57519;51.494;-2.626;2023-07-13T01:18:20;15.50;86.06
70154;DHT22;57519;51.494;-2.626;2023-07-13T01:20:57;15.49;86.12
70154;DHT22;57519;51.494;-2.626;2023-07-13T01:23:23;15.47;86.07
70154;DHT22;57519;51.494;-2.626;2023-07-13T01:25:50;15.57;86.22
70154;DHT22;57519;51.494;-2.626;2023-07-13T01:28:16;15.61;85.92
70154;DHT22;57519;51.494;-2.626;2023-07-13T01:30:42;15.58;85.59
70154;DHT22;57519;51.494;-2.626;2023-07-13T01:33:12;15.58;85.57
70154;DHT22;57519;51.494;-2.626;2023-07-13T01:35:38;15.61;85.65
70154;DHT22;57519;51.494;-2.626;2023-07-13T01:38:04;15.64;85.98
70154;DHT22;57519;51.494;-2.626;2023-07-13T01:40:29;15.70;86.47
70154;DHT22;57519;51.494;-2.626;2023-07-13T01:42:55;15.70;86.38
70154;DHT22;57519;51.494;-2.626;2023-07-13T01:45:21;15.73;86.24
70154;DHT22;57519;51.494;-2.626;2023-07-13T01:47:46;15.70;86.53
70154;DHT22;57519;51.494;-2.626;2023-07-13T01:50:11;15.66;86.48
70154;DHT22;57519;51.494;-2.626;2023-07-13T01:52:37;15.60;86.41
70154;DHT22;57519;51.494;-2.626;2023-07-13T01:55:03;15.61;86.58
70154;DHT22;57519;51.494;-2.626;2023-07-13T01:57:28;15.54;86.83
70154;DHT22;57519;51.494;-2.626;2023-07-13T01:59:54;15.57;87.06
70154;DHT22;57519;51.494;-2.626;2023-07-13T02:02:19;15.60;87.13
70154;DHT22;57519;51.494;-2.626;2023-07-13T02:04:45;15.58;87.22
70154;DHT22;57519;51.494;-2.626;2023-07-13T02:07:10;15.57;87.09
70154;DHT22;57519;51.494;-2.626;2023-07-13T02:09:36;15.53;87.09
70154;DHT22;57519;51.494;-2.626;2023-07-13T02:12:02;15.53;87.12
70154;DHT22;57519;51.494;-2.626;2023-07-13T02:14:27;15.56;87.13
70154;DHT22;57519;51.494;-2.626;2023-07-13T02:16:53;15.58;86.71
70154;DHT22;57519;51.494;-2.626;2023-07-13T02:19:18;15.56;86.82
70154;DHT22;57519;51.494;-2.626;2023-07-13T02:21:44;15.56;86.78
70154;DHT22;57519;51.494;-2.626;2023-07-13T02:24:09;15.56;86.86
70154;DHT22;57519;51.494;-2.626;2023-07-13T02:26:34;15.49;86.87
70154;DHT22;57519;51.494;-2.626;2023-07-13T02:29:01;15.51;86.90
70154;DHT22;57519;51.494;-2.626;2023-07-13T02:31:26;15.44;87.05
70154;DHT22;57519;51.494;-2.626;2023-07-13T02:33:52;15.39;87.40
70154;DHT22;57519;51.494;-2.626;2023-07-13T02:36:17;15.37;87.63
70154;DHT22;57519;51.494;-2.626;2023-07-13T02:38:44;15.39;87.81
70154;DHT22;57519;51.494;-2.626;2023-07-13T02:41:09;15.42;87.92
70154;DHT22;57519;51.494;-2.626;2023-07-13T02:43:35;15.40;88.07
70154;DHT22;57519;51.494;-2.626;2023-07-13T02:46:01;15.46;88.09
70154;DHT22;57519;51.494;-2.626;2023-07-13T02:48:29;15.49;87.89
70154;DHT22;57519;51.494;-2.626;2023-07-13T02:50:55;15.54;87.71
70154;DHT22;57519;51.494;-2.626;2023-07-13T02:53:20;15.60;87.52
70154;DHT22;57519;51.494;-2.626;2023-07-13T02:55:46;15.61;87.42
70154;DHT22;57519;51.494;-2.626;2023-07-13T02:58:13;15.66;87.30
70154;DHT22;57519;51.494;-2.626;2023-07-13T03:00:43;15.67;87.36
70154;DHT22;57519;51.494;-2.626;2023-07-13T03:03:08;15.71;87.46
70154;DHT22;57519;51.494;-2.626;2023-07-13T03:05:34;15.71;87.00
70154;DHT22;57519;51.494;-2.626;2023-07-13T03:07:59;15.75;86.94
70154;DHT22;57519;51.494;-2.626;2023-07-13T03:10:25;15.74;86.94
70154;DHT22;57519;51.494;-2.626;2023-07-13T03:12:50;15.77;87.06
70154;DHT22;57519;51.494;-2.626;2023-07-13T03:15:16;15.73;86.96
70154;DHT22;57519;51.494;-2.626;2023-07-13T03:17:41;15.68;87.12
70154;DHT22;57519;51.494;-2.626;2023-07-13T03:20:07;15.63;87.35
70154;DHT22;57519;51.494;-2.626;2023-07-13T03:22:33;15.57;87.46
70154;DHT22;57519;51.494;-2.626;2023-07-13T03:24:58;15.51;87.68
70154;DHT22;57519;51.494;-2.626;2023-07-13T03:27:24;15.43;87.78
70154;DHT22;57519;51.494;-2.626;2023-07-13T03:29:49;15.29;88.09
70154;DHT22;57519;51.494;-2.626;2023-07-13T03:32:15;15.19;88.30
70154;DHT22;57519;51.494;-2.626;2023-07-13T03:34:40;15.06;88.69
70154;DHT22;57519;51.494;-2.626;2023-07-13T03:37:05;14.98;89.02
70154;DHT22;57519;51.494;-2.626;2023-07-13T03:39:31;14.92;89.25
70154;DHT22;57519;51.494;-2.626;2023-07-13T03:41:56;14.84;89.48
70154;DHT22;57519;51.494;-2.626;2023-07-13T03:44:22;14.72;89.77
70154;DHT22;57519;51.494;-2.626;2023-07-13T03:46:47;14.65;89.85
70154;DHT22;57519;51.494;-2.626;2023-07-13T03:49:13;14.59;90.04
70154;DHT22;57519;51.494;-2.626;2023-07-13T03:51:38;14.53;90.26
70154;DHT22;57519;51.494;-2.626;2023-07-13T03:54:04;14.53;90.42
70154;DHT22;57519;51.494;-2.626;2023-07-13T03:56:30;14.48;90.70
70154;DHT22;57519;51.494;-2.626;2023-07-13T03:58:56;14.48;90.74
70154;DHT22;57519;51.494;-2.626;2023-07-13T04:01:23;14.50;90.71
70154;DHT22;57519;51.494;-2.626;2023-07-13T04:03:50;14.54;90.78
70154;DHT22;57519;51.494;-2.626;2023-07-13T04:06:20;14.53;90.71
70154;DHT22;57519;51.494;-2.626;2023-07-13T04:08:48;14.47;90.79
70154;DHT22;57519;51.494;-2.626;2023-07-13T04:11:14;14.51;91.17
70154;DHT22;57519;51.494;-2.626;2023-07-13T04:13:39;14.51;91.41
70154;DHT22;57519;51.494;-2.626;2023-07-13T04:16:05;14.54;91.28
70154;DHT22;57519;51.494;-2.626;2023-07-13T04:18:30;14.53;91.13
70154;DHT22;57519;51.494;-2.626;2023-07-13T04:20:56;14.56;91.25
70154;DHT22;57519;51.494;-2.626;2023-07-13T04:23:21;14.63;91.40
70154;DHT22;57519;51.494;-2.626;2023-07-13T04:25:48;14.60;91.34
70154;DHT22;57519;51.494;-2.626;2023-07-13T04:28:18;14.63;91.27
70154;DHT22;57519;51.494;-2.626;2023-07-13T04:30:44;14.61;91.41
70154;DHT22;57519;51.494;-2.626;2023-07-13T04:33:10;14.65;91.24
70154;DHT22;57519;51.494;-2.626;2023-07-13T04:35:35;14.60;91.18
70154;DHT22;57519;51.494;-2.626;2023-07-13T04:38:01;14.54;91.28
70154;DHT22;57519;51.494;-2.626;2023-07-13T04:40:28;14.57;91.52
70154;DHT22;57519;51.494;-2.626;2023-07-13T04:42:53;14.54;91.57
70154;DHT22;57519;51.494;-2.626;2023-07-13T04:45:19;14.50;91.57
70154;DHT22;57519;51.494;-2.626;2023-07-13T04:47:44;14.51;91.69
70154;DHT22;57519;51.494;-2.626;2023-07-13T04:50:13;14.56;91.78
70154;DHT22;57519;51.494;-2.626;2023-07-13T04:52:41;14.57;91.62
70154;DHT22;57519;51.494;-2.626;2023-07-13T04:55:08;14.59;91.58
70154;DHT22;57519;51.494;-2.626;2023-07-13T04:57:33;14.61;91.56
70154;DHT22;57519;51.494;-2.626;2023-07-13T04:59:59;14.61;91.52
70154;DHT22;57519;51.494;-2.626;2023-07-13T05:02:26;14.63;91.53
70154;DHT22;57519;51.494;-2.626;2023-07-13T05:04:53;14.59;91.54
70154;DHT22;57519;51.494;-2.626;2023-07-13T05:07:19;14.56;91.58
70154;DHT22;57519;51.494;-2.626;2023-07-13T05:12:10;14.59;91.49
70154;DHT22;57519;51.494;-2.626;2023-07-13T05:14:36;14.60;91.72
70154;DHT22;57519;51.494;-2.626;2023-07-13T05:17:01;14.63;92.06
70154;DHT22;57519;51.494;-2.626;2023-07-13T05:19:27;14.64;91.98
70154;DHT22;57519;51.494;-2.626;2023-07-13T05:21:52;14.71;92.02
70154;DHT22;57519;51.494;-2.626;2023-07-13T05:24:18;14.81;91.86
70154;DHT22;57519;51.494;-2.626;2023-07-13T05:26:44;14.84;91.90
70154;DHT22;57519;51.494;-2.626;2023-07-13T05:29:09;14.91;91.94
70154;DHT22;57519;51.494;-2.626;2023-07-13T05:31:35;15.03;91.84
70154;DHT22;57519;51.494;-2.626;2023-07-13T05:34:00;15.15;91.60
70154;DHT22;57519;51.494;-2.626;2023-07-13T05:36:26;15.25;91.42
70154;DHT22;57519;51.494;-2.626;2023-07-13T05:38:51;15.25;91.16
70154;DHT22;57519;51.494;-2.626;2023-07-13T05:41:16;15.37;90.95
70154;DHT22;57519;51.494;-2.626;2023-07-13T05:43:42;15.46;90.23
70154;DHT22;57519;51.494;-2.626;2023-07-13T05:46:07;15.53;89.76
70154;DHT22;57519;51.494;-2.626;2023-07-13T05:48:33;15.56;89.60
70154;DHT22;57519;51.494;-2.626;2023-07-13T05:50:58;15.66;89.43
70154;DHT22;57519;51.494;-2.626;2023-07-13T05:53:24;15.77;89.08
70154;DHT22;57519;51.494;-2.626;2023-07-13T05:55:49;15.94;88.70
70154;DHT22;57519;51.494;-2.626;2023-07-13T05:58:18;16.04;88.62
70154;DHT22;57519;51.494;-2.626;2023-07-13T06:00:45;16.05;88.27
70154;DHT22;57519;51.494;-2.626;2023-07-13T06:03:10;16.18;87.84
70154;DHT22;57519;51.494;-2.626;2023-07-13T06:05:37;16.32;87.14
70154;DHT22;57519;51.494;-2.626;2023-07-13T06:08:03;16.41;86.25
70154;DHT22;57519;51.494;-2.626;2023-07-13T06:10:29;16.63;85.56
70154;DHT22;57519;51.494;-2.626;2023-07-13T06:12:57;16.60;85.03
70154;DHT22;57519;51.494;-2.626;2023-07-13T06:15:22;16.56;85.30
70154;DHT22;57519;51.494;-2.626;2023-07-13T06:17:48;16.50;85.50
70154;DHT22;57519;51.494;-2.626;2023-07-13T06:20:14;16.41;85.67
70154;DHT22;57519;51.494;-2.626;2023-07-13T06:22:39;16.41;86.16
70154;DHT22;57519;51.494;-2.626;2023-07-13T06:25:05;16.29;85.84
70154;DHT22;57519;51.494;-2.626;2023-07-13T06:27:31;16.30;86.08
70154;DHT22;57519;51.494;-2.626;2023-07-13T06:29:56;16.29;86.39
70154;DHT22;57519;51.494;-2.626;2023-07-13T06:32:25;16.28;87.47
70154;DHT22;57519;51.494;-2.626;2023-07-13T06:34:50;16.23;87.87
70154;DHT22;57519;51.494;-2.626;2023-07-13T06:37:17;16.18;88.24
70154;DHT22;57519;51.494;-2.626;2023-07-13T06:39:43;16.21;88.31
70154;DHT22;57519;51.494;-2.626;2023-07-13T06:42:11;16.26;88.36
70154;DHT22;57519;51.494;-2.626;2023-07-13T06:44:36;16.38;87.78
70154;DHT22;57519;51.494;-2.626;2023-07-13T06:47:02;16.56;87.19
70154;DHT22;57519;51.494;-2.626;2023-07-13T06:49:27;16.80;86.99
70154;DHT22;57519;51.494;-2.626;2023-07-13T06:51:53;16.92;86.44
70154;DHT22;57519;51.494;-2.626;2023-07-13T06:54:18;16.97;85.99
70154;DHT22;57519;51.494;-2.626;2023-07-13T06:56:44;17.07;85.94
70154;DHT22;57519;51.494;-2.626;2023-07-13T06:59:09;17.11;85.71
70154;DHT22;57519;51.494;-2.626;2023-07-13T07:01:34;17.11;85.68
70154;DHT22;57519;51.494;-2.626;2023-07-13T07:04:00;17.17;85.22
70154;DHT22;57519;51.494;-2.626;2023-07-13T07:06:25;17.22;85.09
70154;DHT22;57519;51.494;-2.626;2023-07-13T07:08:52;17.27;84.67
70154;DHT22;57519;51.494;-2.626;2023-07-13T07:11:25;17.08;84.36
70154;DHT22;57519;51.494;-2.626;2023-07-13T07:13:52;17.08;84.52
70154;DHT22;57519;51.494;-2.626;2023-07-13T07:16:19;17.21;84.89
70154;DHT22;57519;51.494;-2.626;2023-07-13T07:18:45;17.31;84.52
70154;DHT22;57519;51.494;-2.626;2023-07-13T07:21:11;17.35;84.04
70154;DHT22;57519;51.494;-2.626;2023-07-13T07:23:36;17.35;83.71
70154;DHT22;57519;51.494;-2.626;2023-07-13T07:26:03;17.38;83.34
70154;DHT22;57519;51.494;-2.626;2023-07-13T07:28:28;17.43;83.70
70154;DHT22;57519;51.494;-2.626;2023-07-13T07:30:56;17.53;83.60
70154;DHT22;57519;51.494;-2.626;2023-07-13T07:33:23;17.59;83.06
70154;DHT22;57519;51.494;-2.626;2023-07-13T07:35:48;17.65;82.35
70154;DHT22;57519;51.494;-2.626;2023-07-13T07:38:14;17.90;82.02
70154;DHT22;57519;51.494;-2.626;2023-07-13T07:40:40;18.04;81.71
70154;DHT22;57519;51.494;-2.626;2023-07-13T07:43:07;18.13;81.34
70154;DHT22;57519;51.494;-2.626;2023-07-13T07:45:32;17.97;81.48
70154;DHT22;57519;51.494;-2.626;2023-07-13T07:47:58;17.98;81.77
70154;DHT22;57519;51.494;-2.626;2023-07-13T07:50:28;17.97;82.10
70154;DHT22;57519;51.494;-2.626;2023-07-13T07:52:54;17.86;81.76
70154;DHT22;57519;51.494;-2.626;2023-07-13T07:55:21;17.91;81.77
70154;DHT22;57519;51.494;-2.626;2023-07-13T07:57:47;17.82;82.00
70154;DHT22;57519;51.494;-2.626;2023-07-13T08:00:13;17.77;82.78
70154;DHT22;57519;51.494;-2.626;2023-07-13T08:02:39;17.59;83.16
70154;DHT22;57519;51.494;-2.626;2023-07-13T08:05:09;17.45;84.01
70154;DHT22;57519;51.494;-2.626;2023-07-13T08:07:37;17.19;83.84
70154;DHT22;57519;51.494;-2.626;2023-07-13T08:10:03;17.10;84.55
70154;DHT22;57519;51.494;-2.626;2023-07-13T08:12:28;17.22;84.86
70154;DHT22;57519;51.494;-2.626;2023-07-13T08:14:54;17.25;84.58
70154;DHT22;57519;51.494;-2.626;2023-07-13T08:17:22;17.32;85.12
70154;DHT22;57519;51.494;-2.626;2023-07-13T08:19:48;17.34;85.87
70154;DHT22;57519;51.494;-2.626;2023-07-13T08:22:13;17.19;86.20
70154;DHT22;57519;51.494;-2.626;2023-07-13T08:24:39;17.22;86.52
70154;DHT22;57519;51.494;-2.626;2023-07-13T08:27:07;17.19;86.37
70154;DHT22;57519;51.494;-2.626;2023-07-13T08:29:33;17.24;87.00
70154;DHT22;57519;51.494;-2.626;2023-07-13T08:31:58;17.42;86.73
70154;DHT22;57519;51.494;-2.626;2023-07-13T08:34:24;17.61;86.26
70154;DHT22;57519;51.494;-2.626;2023-07-13T08:36:49;17.72;85.85
70154;DHT22;57519;51.494;-2.626;2023-07-13T08:39:15;17.83;85.23
70154;DHT22;57519;51.494;-2.626;2023-07-13T08:41:40;18.04;85.26
70154;DHT22;57519;51.494;-2.626;2023-07-13T08:44:15;18.15;84.00
70154;DHT22;57519;51.494;-2.626;2023-07-13T08:46:45;18.34;84.03
70154;DHT22;57519;51.494;-2.626;2023-07-13T08:49:15;18.51;82.89
70154;DHT22;57519;51.494;-2.626;2023-07-13T08:52:01;18.65;82.75
70154;DHT22;57519;51.494;-2.626;2023-07-13T08:54:41;18.71;81.29
70154;DHT22;57519;51.494;-2.626;2023-07-13T08:57:14;18.69;81.59
70154;DHT22;57519;51.494;-2.626;2023-07-13T08:59:40;18.69;81.27
70154;DHT22;57519;51.494;-2.626;2023-07-13T09:02:56;18.75;81.22
70154;DHT22;57519;51.494;-2.626;2023-07-13T09:05:29;18.72;80.36
70154;DHT22;57519;51.494;-2.626;2023-07-13T09:11:22;18.61;79.53
70154;DHT22;57519;51.494;-2.626;2023-07-13T09:14:26;18.61;79.83
70154;DHT22;57519;51.494;-2.626;2023-07-13T09:16:51;18.79;80.09
70154;DHT22;57519;51.494;-2.626;2023-07-13T09:19:24;18.65;79.97
70154;DHT22;57519;51.494;-2.626;2023-07-13T09:21:52;18.88;80.02
70154;DHT22;57519;51.494;-2.626;2023-07-13T09:24:36;19.23;79.77
70154;DHT22;57519;51.494;-2.626;2023-07-13T09:27:09;19.38;78.35
70154;DHT22;57519;51.494;-2.626;2023-07-13T09:29:41;19.34;78.56
70154;DHT22;57519;51.494;-2.626;2023-07-13T09:32:10;19.06;77.86
70154;DHT22;57519;51.494;-2.626;2023-07-13T09:34:38;18.99;78.76
70154;DHT22;57519;51.494;-2.626;2023-07-13T09:37:03;19.26;78.44
70154;DHT22;57519;51.494;-2.626;2023-07-13T09:39:33;19.37;77.49
70154;DHT22;57519;51.494;-2.626;2023-07-13T09:42:16;19.39;77.51
70154;DHT22;57519;51.494;-2.626;2023-07-13T09:45:02;19.39;76.94
70154;DHT22;57519;51.494;-2.626;2023-07-13T09:47:30;19.35;78.07
70154;DHT22;57519;51.494;-2.626;2023-07-13T09:49:58;19.26;78.04
70154;DHT22;57519;51.494;-2.626;2023-07-13T09:52:24;19.23;77.86
70154;DHT22;57519;51.494;-2.626;2023-07-13T09:54:51;19.20;78.33
70154;DHT22;57519;51.494;-2.626;2023-07-13T09:57:23;19.27;77.48
70154;DHT22;57519;51.494;-2.626;2023-07-13T09:59:51;19.21;77.14
70154;DHT22;57519;51.494;-2.626;2023-07-13T10:02:25;19.03;77.35
70154;DHT22;57519;51.494;-2.626;2023-07-13T10:05:06;19.20;77.30
70154;DHT22;57519;51.494;-2.626;2023-07-13T10:07:38;19.64;76.97
70154;DHT22;57519;51.494;-2.626;2023-07-13T10:10:20;19.92;76.24
70154;DHT22;57519;51.494;-2.626;2023-07-13T10:12:46;19.87;74.13
70154;DHT22;57519;51.494;-2.626;2023-07-13T10:15:18;20.10;74.06
70154;DHT22;57519;51.494;-2.626;2023-07-13T10:17:46;20.06;73.29
70154;DHT22;57519;51.494;-2.626;2023-07-13T10:20:12;19.90;72.93
70154;DHT22;57519;51.494;-2.626;2023-07-13T10:22:47;19.99;73.03
70154;DHT22;57519;51.494;-2.626;2023-07-13T10:25:21;20.13;73.16
70154;DHT22;57519;51.494;-2.626;2023-07-13T10:27:51;19.96;72.73
70154;DHT22;57519;51.494;-2.626;2023-07-13T10:32:45;20.14;72.21
70154;DHT22;57519;51.494;-2.626;2023-07-13T10:35:13;20.19;71.38
70154;DHT22;57519;51.494;-2.626;2023-07-13T10:37:49;20.32;71.76
70154;DHT22;57519;51.494;-2.626;2023-07-13T10:40:29;20.45;71.25
70154;DHT22;57519;51.494;-2.626;2023-07-13T10:42:59;20.50;70.50
70154;DHT22;57519;51.494;-2.626;2023-07-13T10:45:26;20.58;69.94
70154;DHT22;57519;51.494;-2.626;2023-07-13T10:47:54;20.67;69.64
70154;DHT22;57519;51.494;-2.626;2023-07-13T10:50:28;20.44;69.82
70154;DHT22;57519;51.494;-2.626;2023-07-13T10:53:01;20.85;70.12
70154;DHT22;57519;51.494;-2.626;2023-07-13T10:58:32;21.42;68.30
70154;DHT22;57519;51.494;-2.626;2023-07-13T11:01:12;21.50;67.96
70154;DHT22;57519;51.494;-2.626;2023-07-13T11:03:55;21.51;67.52
70154;DHT22;57519;51.494;-2.626;2023-07-13T11:08:58;21.36;67.60
70154;DHT22;57519;51.494;-2.626;2023-07-13T11:18:52;21.71;63.84
70154;DHT22;57519;51.494;-2.626;2023-07-13T11:21:22;21.43;63.00
70154;DHT22;57519;51.494;-2.626;2023-07-13T11:23:53;21.37;64.23
70154;DHT22;57519;51.494;-2.626;2023-07-13T11:26:39;21.18;64.80
70154;DHT22;57519;51.494;-2.626;2023-07-13T11:31:43;21.67;65.91
70154;DHT22;57519;51.494;-2.626;2023-07-13T11:34:18;21.83;65.73
70154;DHT22;57519;51.494;-2.626;2023-07-13T11:36:47;21.90;66.62
70154;DHT22;57519;51.494;-2.626;2023-07-13T11:39:32;21.58;65.86
70154;DHT22;57519;51.494;-2.626;2023-07-13T11:42:05;21.20;65.02
70154;DHT22;57519;51.494;-2.626;2023-07-13T11:44:32;21.18;65.10
70154;DHT22;57519;51.494;-2.626;2023-07-13T11:47:11;21.08;66.56
70154;DHT22;57519;51.494;-2.626;2023-07-13T11:49:45;21.05;65.98
70154;DHT22;57519;51.494;-2.626;2023-07-13T11:52:19;21.49;65.49
70154;DHT22;57519;51.494;-2.626;2023-07-13T11:54:49;21.60;64.54
70154;DHT22;57519;51.494;-2.626;2023-07-13T11:57:28;21.67;64.61
70154;DHT22;57519;51.494;-2.626;2023-07-13T11:59:58;22.25;64.77
70154;DHT22;57519;51.494;-2.626;2023-07-13T12:02:36;21.97;64.83
70154;DHT22;57519;51.494;-2.626;2023-07-13T12:05:04;21.47;65.13
70154;DHT22;57519;51.494;-2.626;2023-07-13T12:07:32;21.75;64.73
70154;DHT22;57519;51.494;-2.626;2023-07-13T12:10:21;21.61;64.76
70154;DHT22;57519;51.494;-2.626;2023-07-13T12:12:52;21.64;64.30
70154;DHT22;57519;51.494;-2.626;2023-07-13T12:15:18;21.75;64.75
70154;DHT22;57519;51.494;-2.626;2023-07-13T12:17:44;21.18;64.14
70154;DHT22;57519;51.494;-2.626;2023-07-13T12:20:23;21.08;65.81
70154;DHT22;57519;51.494;-2.626;2023-07-13T12:22:50;21.06;66.81
70154;DHT22;57519;51.494;-2.626;2023-07-13T12:25:17;21.37;66.87
70154;DHT22;57519;51.494;-2.626;2023-07-13T12:27:49;21.67;65.15
70154;DHT22;57519;51.494;-2.626;2023-07-13T12:30:30;22.05;64.71
70154;DHT22;57519;51.494;-2.626;2023-07-13T12:33:01;22.23;63.54
70154;DHT22;57519;51.494;-2.626;2023-07-13T12:35:30;22.26;61.78
70154;DHT22;57519;51.494;-2.626;2023-07-13T12:37:59;22.06;60.58
70154;DHT22;57519;51.494;-2.626;2023-07-13T12:40:32;22.08;62.78
70154;DHT22;57519;51.494;-2.626;2023-07-13T12:42:58;21.94;63.65
70154;DHT22;57519;51.494;-2.626;2023-07-13T12:45:27;21.95;63.23
70154;DHT22;57519;51.494;-2.626;2023-07-13T12:48:10;21.81;63.95
70154;DHT22;57519;51.494;-2.626;2023-07-13T12:50:42;22.18;64.40
70154;DHT22;57519;51.494;-2.626;2023-07-13T12:53:23;22.06;63.34
70154;DHT22;57519;51.494;-2.626;2023-07-13T12:55:55;21.87;64.76
70154;DHT22;57519;51.494;-2.626;2023-07-13T12:58:36;21.67;65.31
70154;DHT22;57519;51.494;-2.626;2023-07-13T13:01:03;21.60;65.74
70154;DHT22;57519;51.494;-2.626;2023-07-13T13:03:36;21.81;66.10
70154;DHT22;57519;51.494;-2.626;2023-07-13T13:06:05;21.75;65.30
70154;DHT22;57519;51.494;-2.626;2023-07-13T13:08:35;21.58;64.06
70154;DHT22;57519;51.494;-2.626;2023-07-13T13:11:02;21.51;63.69
70154;DHT22;57519;51.494;-2.626;2023-07-13T13:13:27;21.16;63.72
70154;DHT22;57519;51.494;-2.626;2023-07-13T13:15:53;20.98;63.19
70154;DHT22;57519;51.494;-2.626;2023-07-13T13:18:22;21.02;63.61
70154;DHT22;57519;51.494;-2.626;2023-07-13T13:20:49;21.10;61.61
70154;DHT22;57519;51.494;-2.626;2023-07-13T13:23:17;21.30;61.29
70154;DHT22;57519;51.494;-2.626;2023-07-13T13:25:46;21.13;61.04
70154;DHT22;57519;51.494;-2.626;2023-07-13T13:28:18;21.09;62.10
70154;DHT22;57519;51.494;-2.626;2023-07-13T13:30:45;21.13;62.63
70154;DHT22;57519;51.494;-2.626;2023-07-13T13:33:12;21.05;63.20
70154;DHT22;57519;51.494;-2.626;2023-07-13T13:35:40;20.88;62.24
70154;DHT22;57519;51.494;-2.626;2023-07-13T13:38:14;21.15;62.40
70154;DHT22;57519;51.494;-2.626;2023-07-13T13:40:41;21.19;62.59
70154;DHT22;57519;51.494;-2.626;2023-07-13T13:43:25;20.88;62.92
70154;DHT22;57519;51.494;-2.626;2023-07-13T13:45:53;21.26;62.76
70154;DHT22;57519;51.494;-2.626;2023-07-13T13:48:32;21.73;61.48
70154;DHT22;57519;51.494;-2.626;2023-07-13T13:50:59;21.77;61.81
70154;DHT22;57519;51.494;-2.626;2023-07-13T13:53:25;21.91;60.91
70154;DHT22;57519;51.494;-2.626;2023-07-13T13:55:51;21.78;61.20
70154;DHT22;57519;51.494;-2.626;2023-07-13T13:58:18;22.00;61.57
70154;DHT22;57519;51.494;-2.626;2023-07-13T14:00:44;22.04;60.65
70154;DHT22;57519;51.494;-2.626;2023-07-13T14:03:20;22.26;60.75
70154;DHT22;57519;51.494;-2.626;2023-07-13T14:05:48;22.39;59.42
70154;DHT22;57519;51.494;-2.626;2023-07-13T14:08:19;22.43;59.53
70154;DHT22;57519;51.494;-2.626;2023-07-13T14:10:47;22.05;60.31
70154;DHT22;57519;51.494;-2.626;2023-07-13T14:13:36;21.74;60.58
70154;DHT22;57519;51.494;-2.626;2023-07-13T14:16:12;21.98;59.90
70154;DHT22;57519;51.494;-2.626;2023-07-13T14:18:40;21.94;58.43
70154;DHT22;57519;51.494;-2.626;2023-07-13T14:21:13;21.98;59.81
70154;DHT22;57519;51.494;-2.626;2023-07-13T14:23:39;22.01;58.97
70154;DHT22;57519;51.494;-2.626;2023-07-13T14:26:11;21.90;58.60
70154;DHT22;57519;51.494;-2.626;2023-07-13T14:28:41;21.84;58.66
70154;DHT22;57519;51.494;-2.626;2023-07-13T14:31:07;21.71;61.02
70154;DHT22;57519;51.494;-2.626;2023-07-13T14:33:32;22.22;61.18
70154;DHT22;57519;51.494;-2.626;2023-07-13T14:35:58;22.00;58.50
70154;DHT22;57519;51.494;-2.626;2023-07-13T14:38:23;22.18;58.99
70154;DHT22;57519;51.494;-2.626;2023-07-13T14:40:49;22.26;58.92
70154;DHT22;57519;51.494;-2.626;2023-07-13T14:43:16;22.01;57.47
70154;DHT22;57519;51.494;-2.626;2023-07-13T14:45:46;22.02;58.43
70154;DHT22;57519;51.494;-2.626;2023-07-13T14:48:21;22.02;59.55
70154;DHT22;57519;51.494;-2.626;2023-07-13T14:50:53;22.15;59.93
70154;DHT22;57519;51.494;-2.626;2023-07-13T14:53:18;21.88;60.31
70154;DHT22;57519;51.494;-2.626;2023-07-13T14:55:44;22.01;59.64
70154;DHT22;57519;51.494;-2.626;2023-07-13T14:58:09;22.21;59.40
70154;DHT22;57519;51.494;-2.626;2023-07-13T15:00:36;22.46;60.67
70154;DHT22;57519;51.494;-2.626;2023-07-13T15:03:03;22.26;59.74
70154;DHT22;57519;51.494;-2.626;2023-07-13T15:05:32;21.83;59.42
70154;DHT22;57519;51.494;-2.626;2023-07-13T15:07:59;21.84;60.22
70154;DHT22;57519;51.494;-2.626;2023-07-13T15:10:29;21.93;60.18
70154;DHT22;57519;51.494;-2.626;2023-07-13T15:13:12;21.53;59.96
70154;DHT22;57519;51.494;-2.626;2023-07-13T15:15:40;21.73;60.81
70154;DHT22;57519;51.494;-2.626;2023-07-13T15:18:09;21.74;60.24
70154;DHT22;57519;51.494;-2.626;2023-07-13T15:20:36;21.46;60.74
70154;DHT22;57519;51.494;-2.626;2023-07-13T15:23:02;21.53;60.80
70154;DHT22;57519;51.494;-2.626;2023-07-13T15:25:29;21.47;61.88
70154;DHT22;57519;51.494;-2.626;2023-07-13T15:27:59;21.33;61.86
70154;DHT22;57519;51.494;-2.626;2023-07-13T15:30:28;21.73;61.95
70154;DHT22;57519;51.494;-2.626;2023-07-13T15:32:56;21.45;60.35
70154;DHT22;57519;51.494;-2.626;2023-07-13T15:35:25;21.37;60.02
70154;DHT22;57519;51.494;-2.626;2023-07-13T15:37:51;21.42;61.09
70154;DHT22;57519;51.494;-2.626;2023-07-13T15:40:17;21.64;59.68
70154;DHT22;57519;51.494;-2.626;2023-07-13T15:42:44;21.97;59.04
70154;DHT22;57519;51.494;-2.626;2023-07-13T15:45:23;22.06;58.53
70154;DHT22;57519;51.494;-2.626;2023-07-13T15:47:52;22.06;58.04